sensor_id;sensor_type;location;lat;lon;timestamp;P1;durP1;ratioP1;P2;durP2;ratioP2
20241;SDS011;10279;46.388;8.116;2023-03-21T00:01:52;1.30;;;0.77;;
20241;SDS011;10279;46.388;8.116;2023-03-21T00:04:21;0.80;;;0.80;;
20241;SDS011;10279;46.388;8.116;2023-03-21T00:06:49;2.20;;;0.90;;
20241;SDS011;10279;46.388;8.116;2023-03-21T00:09:17;0.93;;;0.80;;
20241;SDS011;10279;46.388;8.116;2023-03-21T00:11:47;0.87;;;0.80;;
20241;SDS011;10279;46.388;8.116;2023-03-21T00:14:15;1.57;;;0.70;;
20241;SDS011;10279;46.388;8.116;2023-03-21T00:16:46;1.07;;;0.80;;
20241;SDS011;10279;46.388;8.116;2023-03-21T00:19:19;2.07;;;1.10;;
20241;SDS011;10279;46.388;8.116;2023-03-21T00:21:47;1.00;;;0.90;;
20241;SDS011;10279;46.388;8.116;2023-03-21T00:24:37;1.27;;;0.90;;
20241;SDS011;10279;46.388;8.116;2023-03-21T00:27:05;0.87;;;0.87;;
20241;SDS011;10279;46.388;8.116;2023-03-21T00:29:52;1.17;;;0.90;;
20241;SDS011;10279;46.388;8.116;2023-03-21T00:32:21;1.00;;;0.80;;
20241;SDS011;10279;46.388;8.116;2023-03-21T00:34:48;1.13;;;1.00;;
20241;SDS011;10279;46.388;8.116;2023-03-21T00:37:36;1.90;;;0.80;;
20241;SDS011;10279;46.388;8.116;2023-03-21T00:40:03;1.30;;;0.70;;
20241;SDS011;10279;46.388;8.116;2023-03-21T00:42:50;1.13;;;0.80;;
20241;SDS011;10279;46.388;8.116;2023-03-21T00:45:18;1.00;;;0.90;;
20241;SDS011;10279;46.388;8.116;2023-03-21T00:47:47;1.00;;;0.63;;
20241;SDS011;10279;46.388;8.116;2023-03-21T00:50:15;0.70;;;0.70;;
20241;SDS011;10279;46.388;8.116;2023-03-21T00:52:43;0.80;;;0.80;;
20241;SDS011;10279;46.388;8.116;2023-03-21T00:55:14;0.63;;;0.63;;
20241;SDS011;10279;46.388;8.116;2023-03-21T00:57:42;2.10;;;0.90;;
20241;SDS011;10279;46.388;8.116;2023-03-21T01:00:18;1.00;;;0.97;;
20241;SDS011;10279;46.388;8.116;2023-03-21T01:02:46;0.80;;;0.77;;
20241;SDS011;10279;46.388;8.116;2023-03-21T01:05:41;0.93;;;0.73;;
20241;SDS011;10279;46.388;8.116;2023-03-21T01:08:27;0.80;;;0.80;;
20241;SDS011;10279;46.388;8.116;2023-03-21T01:11:04;1.00;;;0.70;;
20241;SDS011;10279;46.388;8.116;2023-03-21T01:13:32;0.97;;;0.90;;
20241;SDS011;10279;46.388;8.116;2023-03-21T01:16:06;1.33;;;0.90;;
20241;SDS011;10279;46.388;8.116;2023-03-21T01:18:35;0.90;;;0.70;;
20241;SDS011;10279;46.388;8.116;2023-03-21T01:21:04;1.97;;;0.70;;
20241;SDS011;10279;46.388;8.116;2023-03-21T01:23:32;2.10;;;0.80;;
20241;SDS011;10279;46.388;8.116;2023-03-21T01:25:59;0.90;;;0.80;;
20241;SDS011;10279;46.388;8.116;2023-03-21T01:28:27;0.60;;;0.60;;
20241;SDS011;10279;46.388;8.116;2023-03-21T01:30:55;0.70;;;0.70;;
20241;SDS011;10279;46.388;8.116;2023-03-21T01:33:23;1.10;;;0.57;;
20241;SDS011;10279;46.388;8.116;2023-03-21T01:35:50;1.97;;;1.00;;
20241;SDS011;10279;46.388;8.116;2023-03-21T01:38:31;1.17;;;0.73;;
20241;SDS011;10279;46.388;8.116;2023-03-21T01:40:59;0.70;;;0.70;;
20241;SDS011;10279;46.388;8.116;2023-03-21T01:43:39;0.70;;;0.70;;
20241;SDS011;10279;46.388;8.116;2023-03-21T01:46:16;0.80;;;0.80;;
20241;SDS011;10279;46.388;8.116;2023-03-21T01:51:26;0.70;;;0.70;;
20241;SDS011;10279;46.388;8.116;2023-03-21T01:53:55;0.60;;;0.60;;
20241;SDS011;10279;46.388;8.116;2023-03-21T01:56:30;0.73;;;0.67;;
20241;SDS011;10279;46.388;8.116;2023-03-21T01:59:07;2.27;;;1.00;;
20241;SDS011;10279;46.388;8.116;2023-03-21T02:01:37;0.77;;;0.70;;
20241;SDS011;10279;46.388;8.116;2023-03-21T02:04:07;0.80;;;0.80;;
20241;SDS011;10279;46.388;8.116;2023-03-21T02:07:18;0.93;;;0.80;;
20241;SDS011;10279;46.388;8.116;2023-03-21T02:09:27;2.00;;;0.83;;
20241;SDS011;10279;46.388;8.116;2023-03-21T02:11:58;0.67;;;0.67;;
20241;SDS011;10279;46.388;8.116;2023-03-21T02:14:26;1.37;;;0.70;;
20241;SDS011;10279;46.388;8.116;2023-03-21T02:17:14;0.70;;;0.70;;
20241;SDS011;10279;46.388;8.116;2023-03-21T02:22:42;1.47;;;0.73;;
20241;SDS011;10279;46.388;8.116;2023-03-21T02:25:29;2.30;;;0.70;;
20241;SDS011;10279;46.388;8.116;2023-03-21T02:28:24;1.20;;;0.80;;
20241;SDS011;10279;46.388;8.116;2023-03-21T02:38:42;1.00;;;0.50;;
20241;SDS011;10279;46.388;8.116;2023-03-21T02:41:21;0.80;;;0.73;;
20241;SDS011;10279;46.388;8.116;2023-03-21T02:44:14;0.80;;;0.73;;
20241;SDS011;10279;46.388;8.116;2023-03-21T02:46:49;0.77;;;0.70;;
20241;SDS011;10279;46.388;8.116;2023-03-21T02:52:28;0.50;;;0.50;;
20241;SDS011;10279;46.388;8.116;2023-03-21T02:55:06;0.70;;;0.60;;
20241;SDS011;10279;46.388;8.116;2023-03-21T02:57:42;1.67;;;0.80;;
20241;SDS011;10279;46.388;8.116;2023-03-21T03:00:12;1.37;;;0.90;;
20241;SDS011;10279;46.388;8.116;2023-03-21T03:02:43;0.77;;;0.77;;
20241;SDS011;10279;46.388;8.116;2023-03-21T03:05:20;0.80;;;0.70;;
20241;SDS011;10279;46.388;8.116;2023-03-21T03:10:23;0.50;;;0.43;;
20241;SDS011;10279;46.388;8.116;2023-03-21T03:15:23;0.97;;;0.80;;
20241;SDS011;10279;46.388;8.116;2023-03-21T03:23:44;0.60;;;0.60;;
20241;SDS011;10279;46.388;8.116;2023-03-21T03:26:26;0.60;;;0.60;;
20241;SDS011;10279;46.388;8.116;2023-03-21T03:28:57;1.57;;;0.60;;
20241;SDS011;10279;46.388;8.116;2023-03-21T03:31:28;0.97;;;0.77;;
20241;SDS011;10279;46.388;8.116;2023-03-21T03:33:59;1.70;;;0.70;;
20241;SDS011;10279;46.388;8.116;2023-03-21T03:36:30;3.03;;;0.63;;
20241;SDS011;10279;46.388;8.116;2023-03-21T03:39:02;1.60;;;0.80;;
20241;SDS011;10279;46.388;8.116;2023-03-21T03:41:31;0.80;;;0.50;;
20241;SDS011;10279;46.388;8.116;2023-03-21T03:44:21;0.50;;;0.50;;
20241;SDS011;10279;46.388;8.116;2023-03-21T03:46:54;0.80;;;0.80;;
20241;SDS011;10279;46.388;8.116;2023-03-21T03:49:23;0.60;;;0.60;;
20241;SDS011;10279;46.388;8.116;2023-03-21T03:54:30;1.57;;;0.60;;
20241;SDS011;10279;46.388;8.116;2023-03-21T03:56:58;0.50;;;0.50;;
20241;SDS011;10279;46.388;8.116;2023-03-21T03:59:26;1.00;;;0.80;;
20241;SDS011;10279;46.388;8.116;2023-03-21T04:01:54;1.27;;;0.83;;
20241;SDS011;10279;46.388;8.116;2023-03-21T04:04:21;1.17;;;0.60;;
20241;SDS011;10279;46.388;8.116;2023-03-21T04:06:54;1.40;;;0.60;;
20241;SDS011;10279;46.388;8.116;2023-03-21T04:09:24;0.60;;;0.60;;
20241;SDS011;10279;46.388;8.116;2023-03-21T04:12:08;1.73;;;0.87;;
20241;SDS011;10279;46.388;8.116;2023-03-21T04:14:36;1.07;;;0.70;;
20241;SDS011;10279;46.388;8.116;2023-03-21T04:17:10;1.27;;;0.90;;
20241;SDS011;10279;46.388;8.116;2023-03-21T04:19:38;0.57;;;0.50;;
20241;SDS011;10279;46.388;8.116;2023-03-21T04:22:05;0.67;;;0.60;;
20241;SDS011;10279;46.388;8.116;2023-03-21T04:24:33;0.83;;;0.60;;
20241;SDS011;10279;46.388;8.116;2023-03-21T04:27:02;1.23;;;0.60;;
20241;SDS011;10279;46.388;8.116;2023-03-21T04:29:31;1.07;;;0.67;;
20241;SDS011;10279;46.388;8.116;2023-03-21T04:31:59;0.57;;;0.47;;
20241;SDS011;10279;46.388;8.116;2023-03-21T04:34:27;1.00;;;0.70;;
20241;SDS011;10279;46.388;8.116;2023-03-21T04:36:54;2.40;;;0.60;;
20241;SDS011;10279;46.388;8.116;2023-03-21T04:39:22;0.63;;;0.53;;
20241;SDS011;10279;46.388;8.116;2023-03-21T04:41:50;1.70;;;0.70;;
20241;SDS011;10279;46.388;8.116;2023-03-21T04:44:17;0.97;;;0.67;;
20241;SDS011;10279;46.388;8.116;2023-03-21T04:46:46;0.50;;;0.50;;
20241;SDS011;10279;46.388;8.116;2023-03-21T04:49:13;0.63;;;0.63;;
20241;SDS011;10279;46.388;8.116;2023-03-21T04:51:41;0.80;;;0.73;;
20241;SDS011;10279;46.388;8.116;2023-03-21T04:54:10;0.57;;;0.57;;
20241;SDS011;10279;46.388;8.116;2023-03-21T04:56:38;0.70;;;0.60;;
20241;SDS011;10279;46.388;8.116;2023-03-21T04:59:10;2.07;;;0.80;;
20241;SDS011;10279;46.388;8.116;2023-03-21T05:01:38;0.57;;;0.57;;
20241;SDS011;10279;46.388;8.116;2023-03-21T05:04:10;0.60;;;0.60;;
20241;SDS011;10279;46.388;8.116;2023-03-21T05:06:38;0.60;;;0.50;;
20241;SDS011;10279;46.388;8.116;2023-03-21T05:09:07;0.63;;;0.50;;
20241;SDS011;10279;46.388;8.116;2023-03-21T05:11:35;0.50;;;0.50;;
20241;SDS011;10279;46.388;8.116;2023-03-21T05:14:04;0.60;;;0.60;;
20241;SDS011;10279;46.388;8.116;2023-03-21T05:16:31;0.60;;;0.60;;
20241;SDS011;10279;46.388;8.116;2023-03-21T05:19:00;0.40;;;0.40;;
20241;SDS011;10279;46.388;8.116;2023-03-21T05:21:31;2.33;;;0.60;;
20241;SDS011;10279;46.388;8.116;2023-03-21T05:24:07;0.70;;;0.60;;
20241;SDS011;10279;46.388;8.116;2023-03-21T05:26:41;1.93;;;0.60;;
20241;SDS011;10279;46.388;8.116;2023-03-21T05:29:08;0.67;;;0.67;;
20241;SDS011;10279;46.388;8.116;2023-03-21T05:31:36;1.23;;;0.70;;
20241;SDS011;10279;46.388;8.116;2023-03-21T05:34:04;1.03;;;0.83;;
20241;SDS011;10279;46.388;8.116;2023-03-21T05:36:31;0.73;;;0.60;;
20241;SDS011;10279;46.388;8.116;2023-03-21T05:39:01;0.60;;;0.50;;
20241;SDS011;10279;46.388;8.116;2023-03-21T05:41:29;0.70;;;0.70;;
20241;SDS011;10279;46.388;8.116;2023-03-21T05:43:56;0.80;;;0.80;;
20241;SDS011;10279;46.388;8.116;2023-03-21T05:46:23;1.00;;;1.00;;
20241;SDS011;10279;46.388;8.116;2023-03-21T05:48:51;0.87;;;0.87;;
20241;SDS011;10279;46.388;8.116;2023-03-21T05:51:18;1.20;;;0.80;;
20241;SDS011;10279;46.388;8.116;2023-03-21T05:53:46;1.17;;;0.97;;
20241;SDS011;10279;46.388;8.116;2023-03-21T05:56:14;0.83;;;0.80;;
20241;SDS011;10279;46.388;8.116;2023-03-21T05:58:41;0.90;;;0.80;;
20241;SDS011;10279;46.388;8.116;2023-03-21T06:01:09;3.30;;;0.87;;
20241;SDS011;10279;46.388;8.116;2023-03-21T06:03:36;0.70;;;0.70;;
20241;SDS011;10279;46.388;8.116;2023-03-21T06:06:04;1.00;;;0.50;;
20241;SDS011;10279;46.388;8.116;2023-03-21T06:08:33;1.13;;;0.50;;
20241;SDS011;10279;46.388;8.116;2023-03-21T06:11:00;0.60;;;0.60;;
20241;SDS011;10279;46.388;8.116;2023-03-21T06:13:31;1.50;;;1.07;;
20241;SDS011;10279;46.388;8.116;2023-03-21T06:15:58;0.80;;;0.70;;
20241;SDS011;10279;46.388;8.116;2023-03-21T06:18:26;0.77;;;0.60;;
20241;SDS011;10279;46.388;8.116;2023-03-21T06:20:54;1.20;;;1.10;;
20241;SDS011;10279;46.388;8.116;2023-03-21T06:23:22;1.67;;;1.10;;
20241;SDS011;10279;46.388;8.116;2023-03-21T06:25:50;0.77;;;0.73;;
20241;SDS011;10279;46.388;8.116;2023-03-21T06:28:17;1.30;;;0.60;;
20241;SDS011;10279;46.388;8.116;2023-03-21T06:30:45;0.83;;;0.40;;
20241;SDS011;10279;46.388;8.116;2023-03-21T06:33:12;1.77;;;0.43;;
20241;SDS011;10279;46.388;8.116;2023-03-21T06:35:39;0.77;;;0.50;;
20241;SDS011;10279;46.388;8.116;2023-03-21T06:38:07;0.70;;;0.70;;
20241;SDS011;10279;46.388;8.116;2023-03-21T06:40:34;2.23;;;0.90;;
20241;SDS011;10279;46.388;8.116;2023-03-21T06:43:03;0.60;;;0.60;;
20241;SDS011;10279;46.388;8.116;2023-03-21T06:45:31;0.70;;;0.70;;
20241;SDS011;10279;46.388;8.116;2023-03-21T06:47:58;0.70;;;0.70;;
20241;SDS011;10279;46.388;8.116;2023-03-21T06:50:26;0.70;;;0.70;;
20241;SDS011;10279;46.388;8.116;2023-03-21T06:52:53;1.23;;;0.67;;
20241;SDS011;10279;46.388;8.116;2023-03-21T06:55:23;0.83;;;0.70;;
20241;SDS011;10279;46.388;8.116;2023-03-21T06:57:52;1.67;;;0.80;;
20241;SDS011;10279;46.388;8.116;2023-03-21T07:00:20;0.63;;;0.63;;
20241;SDS011;10279;46.388;8.116;2023-03-21T07:02:48;0.67;;;0.67;;
20241;SDS011;10279;46.388;8.116;2023-03-21T07:05:16;0.83;;;0.73;;
20241;SDS011;10279;46.388;8.116;2023-03-21T07:07:44;0.67;;;0.50;;
20241;SDS011;10279;46.388;8.116;2023-03-21T07:10:12;0.90;;;0.77;;
20241;SDS011;10279;46.388;8.116;2023-03-21T07:12:39;0.83;;;0.77;;
20241;SDS011;10279;46.388;8.116;2023-03-21T07:15:07;1.13;;;0.70;;
20241;SDS011;10279;46.388;8.116;2023-03-21T07:17:34;1.40;;;1.17;;
20241;SDS011;10279;46.388;8.116;2023-03-21T07:20:02;2.37;;;1.13;;
20241;SDS011;10279;46.388;8.116;2023-03-21T07:22:34;2.77;;;1.23;;
20241;SDS011;10279;46.388;8.116;2023-03-21T07:25:01;1.17;;;1.00;;
20241;SDS011;10279;46.388;8.116;2023-03-21T07:27:30;1.93;;;1.30;;
20241;SDS011;10279;46.388;8.116;2023-03-21T07:29:58;1.10;;;1.00;;
20241;SDS011;10279;46.388;8.116;2023-03-21T07:32:26;1.10;;;0.80;;
20241;SDS011;10279;46.388;8.116;2023-03-21T07:34:55;0.97;;;0.80;;
20241;SDS011;10279;46.388;8.116;2023-03-21T07:37:23;1.27;;;0.80;;
20241;SDS011;10279;46.388;8.116;2023-03-21T07:39:50;1.53;;;1.10;;
20241;SDS011;10279;46.388;8.116;2023-03-21T07:42:18;1.40;;;1.30;;
20241;SDS011;10279;46.388;8.116;2023-03-21T07:44:46;1.53;;;0.70;;
20241;SDS011;10279;46.388;8.116;2023-03-21T07:47:13;3.23;;;0.90;;
20241;SDS011;10279;46.388;8.116;2023-03-21T07:49:40;1.33;;;0.90;;
20241;SDS011;10279;46.388;8.116;2023-03-21T07:52:08;3.70;;;1.40;;
20241;SDS011;10279;46.388;8.116;2023-03-21T07:54:35;1.43;;;1.33;;
20241;SDS011;10279;46.388;8.116;2023-03-21T07:57:03;1.33;;;1.00;;
20241;SDS011;10279;46.388;8.116;2023-03-21T07:59:30;2.53;;;0.90;;
20241;SDS011;10279;46.388;8.116;2023-03-21T08:01:57;1.20;;;0.90;;
20241;SDS011;10279;46.388;8.116;2023-03-21T08:04:25;1.00;;;0.90;;
20241;SDS011;10279;46.388;8.116;2023-03-21T08:06:53;0.77;;;0.77;;
20241;SDS011;10279;46.388;8.116;2023-03-21T08:09:21;0.87;;;0.80;;
20241;SDS011;10279;46.388;8.116;2023-03-21T08:11:48;0.80;;;0.80;;
20241;SDS011;10279;46.388;8.116;2023-03-21T08:14:16;1.87;;;1.00;;
20241;SDS011;10279;46.388;8.116;2023-03-21T08:16:46;1.20;;;0.87;;
20241;SDS011;10279;46.388;8.116;2023-03-21T08:19:14;1.37;;;0.50;;
20241;SDS011;10279;46.388;8.116;2023-03-21T08:21:41;0.50;;;0.50;;
20241;SDS011;10279;46.388;8.116;2023-03-21T08:24:09;0.50;;;0.50;;
20241;SDS011;10279;46.388;8.116;2023-03-21T08:26:36;0.60;;;0.60;;
20241;SDS011;10279;46.388;8.116;2023-03-21T08:29:04;1.53;;;0.67;;
20241;SDS011;10279;46.388;8.116;2023-03-21T08:31:31;0.40;;;0.40;;
20241;SDS011;10279;46.388;8.116;2023-03-21T08:33:58;0.40;;;0.40;;
20241;SDS011;10279;46.388;8.116;2023-03-21T08:36:26;0.30;;;0.30;;
20241;SDS011;10279;46.388;8.116;2023-03-21T08:38:53;0.40;;;0.40;;
20241;SDS011;10279;46.388;8.116;2023-03-21T08:41:22;0.30;;;0.30;;
20241;SDS011;10279;46.388;8.116;2023-03-21T08:43:51;0.30;;;0.30;;
20241;SDS011;10279;46.388;8.116;2023-03-21T08:46:18;0.20;;;0.20;;
20241;SDS011;10279;46.388;8.116;2023-03-21T08:48:46;4.13;;;0.47;;
20241;SDS011;10279;46.388;8.116;2023-03-21T08:51:13;0.30;;;0.30;;
20241;SDS011;10279;46.388;8.116;2023-03-21T08:53:41;0.83;;;0.60;;
20241;SDS011;10279;46.388;8.116;2023-03-21T08:56:09;1.23;;;0.70;;
20241;SDS011;10279;46.388;8.116;2023-03-21T08:58:37;0.43;;;0.43;;
20241;SDS011;10279;46.388;8.116;2023-03-21T09:01:04;1.00;;;0.60;;
20241;SDS011;10279;46.388;8.116;2023-03-21T09:03:37;0.30;;;0.27;;
20241;SDS011;10279;46.388;8.116;2023-03-21T09:06:05;3.20;;;1.20;;
20241;SDS011;10279;46.388;8.116;2023-03-21T09:08:36;0.37;;;0.37;;
20241;SDS011;10279;46.388;8.116;2023-03-21T09:11:04;0.27;;;0.27;;
20241;SDS011;10279;46.388;8.116;2023-03-21T09:13:31;0.40;;;0.30;;
20241;SDS011;10279;46.388;8.116;2023-03-21T09:15:59;0.30;;;0.30;;
20241;SDS011;10279;46.388;8.116;2023-03-21T09:18:27;0.20;;;0.20;;
20241;SDS011;10279;46.388;8.116;2023-03-21T09:21:11;0.30;;;0.30;;
20241;SDS011;10279;46.388;8.116;2023-03-21T09:23:40;0.17;;;0.17;;
20241;SDS011;10279;46.388;8.116;2023-03-21T09:26:07;0.30;;;0.30;;
20241;SDS011;10279;46.388;8.116;2023-03-21T09:28:35;2.10;;;0.30;;
20241;SDS011;10279;46.388;8.116;2023-03-21T09:31:04;0.37;;;0.37;;
20241;SDS011;10279;46.388;8.116;2023-03-21T09:33:33;0.30;;;0.30;;
20241;SDS011;10279;46.388;8.116;2023-03-21T09:36:01;0.27;;;0.27;;
20241;SDS011;10279;46.388;8.116;2023-03-21T09:38:32;0.40;;;0.40;;
20241;SDS011;10279;46.388;8.116;2023-03-21T09:41:04;0.90;;;0.50;;
20241;SDS011;10279;46.388;8.116;2023-03-21T09:43:38;0.40;;;0.40;;
20241;SDS011;10279;46.388;8.116;2023-03-21T09:51:22;0.30;;;0.30;;
20241;SDS011;10279;46.388;8.116;2023-03-21T09:53:52;0.40;;;0.40;;
20241;SDS011;10279;46.388;8.116;2023-03-21T09:56:22;0.40;;;0.40;;
20241;SDS011;10279;46.388;8.116;2023-03-21T09:58:53;0.60;;;0.60;;
20241;SDS011;10279;46.388;8.116;2023-03-21T10:01:23;0.50;;;0.50;;
20241;SDS011;10279;46.388;8.116;2023-03-21T10:03:59;0.30;;;0.30;;
20241;SDS011;10279;46.388;8.116;2023-03-21T10:06:28;0.60;;;0.50;;
20241;SDS011;10279;46.388;8.116;2023-03-21T10:09:16;0.73;;;0.30;;
20241;SDS011;10279;46.388;8.116;2023-03-21T10:11:59;0.40;;;0.30;;
20241;SDS011;10279;46.388;8.116;2023-03-21T10:16:58;0.70;;;0.33;;
20241;SDS011;10279;46.388;8.116;2023-03-21T10:19:26;0.17;;;0.17;;
20241;SDS011;10279;46.388;8.116;2023-03-21T10:21:54;0.37;;;0.37;;
20241;SDS011;10279;46.388;8.116;2023-03-21T10:24:27;0.33;;;0.30;;
20241;SDS011;10279;46.388;8.116;2023-03-21T10:26:56;0.60;;;0.30;;
20241;SDS011;10279;46.388;8.116;2023-03-21T10:29:25;0.20;;;0.20;;
20241;SDS011;10279;46.388;8.116;2023-03-21T10:31:53;0.93;;;0.40;;
20241;SDS011;10279;46.388;8.116;2023-03-21T10:34:32;0.27;;;0.27;;
20241;SDS011;10279;46.388;8.116;2023-03-21T10:37:00;2.40;;;0.30;;
20241;SDS011;10279;46.388;8.116;2023-03-21T10:41:57;1.37;;;0.30;;
20241;SDS011;10279;46.388;8.116;2023-03-21T10:44:28;0.30;;;0.30;;
20241;SDS011;10279;46.388;8.116;2023-03-21T10:46:57;1.07;;;0.47;;
20241;SDS011;10279;46.388;8.116;2023-03-21T10:49:25;0.30;;;0.30;;
20241;SDS011;10279;46.388;8.116;2023-03-21T10:52:06;1.07;;;0.30;;
20241;SDS011;10279;46.388;8.116;2023-03-21T10:54:34;0.50;;;0.20;;
20241;SDS011;10279;46.388;8.116;2023-03-21T10:57:07;0.30;;;0.30;;
20241;SDS011;10279;46.388;8.116;2023-03-21T10:59:42;0.20;;;0.20;;
20241;SDS011;10279;46.388;8.116;2023-03-21T11:02:18;1.03;;;0.40;;
20241;SDS011;10279;46.388;8.116;2023-03-21T11:04:46;0.63;;;0.30;;
20241;SDS011;10279;46.388;8.116;2023-03-21T11:07:14;0.30;;;0.30;;
20241;SDS011;10279;46.388;8.116;2023-03-21T11:09:46;0.20;;;0.20;;
20241;SDS011;10279;46.388;8.116;2023-03-21T11:12:16;0.27;;;0.27;;
20241;SDS011;10279;46.388;8.116;2023-03-21T11:14:45;0.23;;;0.23;;
20241;SDS011;10279;46.388;8.116;2023-03-21T11:19:53;0.33;;;0.30;;
20241;SDS011;10279;46.388;8.116;2023-03-21T11:22:24;0.20;;;0.20;;
20241;SDS011;10279;46.388;8.116;2023-03-21T11:24:53;0.20;;;0.20;;
20241;SDS011;10279;46.388;8.116;2023-03-21T11:27:22;0.40;;;0.40;;
20241;SDS011;10279;46.388;8.116;2023-03-21T11:29:55;0.47;;;0.30;;
20241;SDS011;10279;46.388;8.116;2023-03-21T11:32:33;0.97;;;0.30;;
20241;SDS011;10279;46.388;8.116;2023-03-21T11:37:33;2.20;;;0.30;;
20241;SDS011;10279;46.388;8.116;2023-03-21T11:40:20;0.23;;;0.23;;
20241;SDS011;10279;46.388;8.116;2023-03-21T11:42:53;0.23;;;0.23;;
20241;SDS011;10279;46.388;8.116;2023-03-21T11:45:22;0.20;;;0.20;;
20241;SDS011;10279;46.388;8.116;2023-03-21T11:47:51;0.27;;;0.27;;
20241;SDS011;10279;46.388;8.116;2023-03-21T11:58:12;0.30;;;0.30;;
20241;SDS011;10279;46.388;8.116;2023-03-21T12:00:42;1.83;;;0.33;;
20241;SDS011;10279;46.388;8.116;2023-03-21T12:05:57;0.20;;;0.20;;
20241;SDS011;10279;46.388;8.116;2023-03-21T12:08:39;0.20;;;0.20;;
20241;SDS011;10279;46.388;8.116;2023-03-21T12:24:14;0.20;;;0.20;;
20241;SDS011;10279;46.388;8.116;2023-03-21T12:26:47;0.30;;;0.30;;
20241;SDS011;10279;46.388;8.116;2023-03-21T12:29:23;0.20;;;0.20;;
20241;SDS011;10279;46.388;8.116;2023-03-21T12:31:59;0.20;;;0.20;;
20241;SDS011;10279;46.388;8.116;2023-03-21T12:39:38;0.30;;;0.30;;
20241;SDS011;10279;46.388;8.116;2023-03-21T12:44:44;1.03;;;0.20;;
20241;SDS011;10279;46.388;8.116;2023-03-21T12:47:17;0.30;;;0.20;;
20241;SDS011;10279;46.388;8.116;2023-03-21T12:49:47;0.10;;;0.10;;
20241;SDS011;10279;46.388;8.116;2023-03-21T12:52:19;1.17;;;0.20;;
20241;SDS011;10279;46.388;8.116;2023-03-21T12:55:00;0.38;;;0.38;;
20241;SDS011;10279;46.388;8.116;2023-03-21T12:57:32;0.20;;;0.20;;
20241;SDS011;10279;46.388;8.116;2023-03-21T13:00:13;0.47;;;0.32;;
20241;SDS011;10279;46.388;8.116;2023-03-21T13:02:52;1.08;;;0.20;;
20241;SDS011;10279;46.388;8.116;2023-03-21T13:08:00;0.20;;;0.20;;
20241;SDS011;10279;46.388;8.116;2023-03-21T13:10:32;0.20;;;0.20;;
20241;SDS011;10279;46.388;8.116;2023-03-21T13:13:21;1.13;;;0.20;;
20241;SDS011;10279;46.388;8.116;2023-03-21T13:24:02;0.40;;;0.40;;
20241;SDS011;10279;46.388;8.116;2023-03-21T13:26:39;0.38;;;0.25;;
20241;SDS011;10279;46.388;8.116;2023-03-21T13:29:27;0.20;;;0.20;;
20241;SDS011;10279;46.388;8.116;2023-03-21T13:31:58;1.05;;;0.30;;
20241;SDS011;10279;46.388;8.116;2023-03-21T13:34:36;1.40;;;0.50;;
20241;SDS011;10279;46.388;8.116;2023-03-21T13:37:05;0.45;;;0.22;;
20241;SDS011;10279;46.388;8.116;2023-03-21T13:39:41;0.30;;;0.30;;
20241;SDS011;10279;46.388;8.116;2023-03-21T13:42:10;0.43;;;0.40;;
20241;SDS011;10279;46.388;8.116;2023-03-21T13:44:47;0.20;;;0.20;;
20241;SDS011;10279;46.388;8.116;2023-03-21T13:52:36;0.20;;;0.20;;
20241;SDS011;10279;46.388;8.116;2023-03-21T13:55:03;1.30;;;0.30;;
20241;SDS011;10279;46.388;8.116;2023-03-21T13:57:43;0.20;;;0.20;;
20241;SDS011;10279;46.388;8.116;2023-03-21T14:00:20;0.38;;;0.38;;
20241;SDS011;10279;46.388;8.116;2023-03-21T14:02:54;0.20;;;0.20;;
20241;SDS011;10279;46.388;8.116;2023-03-21T14:05:23;0.30;;;0.30;;
20241;SDS011;10279;46.388;8.116;2023-03-21T14:08:02;0.90;;;0.30;;
20241;SDS011;10279;46.388;8.116;2023-03-21T14:10:44;0.32;;;0.32;;
20241;SDS011;10279;46.388;8.116;2023-03-21T14:13:16;0.40;;;0.20;;
20241;SDS011;10279;46.388;8.116;2023-03-21T14:15:46;0.30;;;0.20;;
20241;SDS011;10279;46.388;8.116;2023-03-21T14:18:23;0.55;;;0.30;;
20241;SDS011;10279;46.388;8.116;2023-03-21T14:24:12;0.40;;;0.40;;
20241;SDS011;10279;46.388;8.116;2023-03-21T14:26:40;0.43;;;0.30;;
20241;SDS011;10279;46.388;8.116;2023-03-21T14:29:12;0.43;;;0.30;;
20241;SDS011;10279;46.388;8.116;2023-03-21T14:31:51;0.40;;;0.30;;
20241;SDS011;10279;46.388;8.116;2023-03-21T14:34:19;0.30;;;0.30;;
20241;SDS011;10279;46.388;8.116;2023-03-21T14:36:47;0.30;;;0.30;;
20241;SDS011;10279;46.388;8.116;2023-03-21T14:39:27;0.47;;;0.30;;
20241;SDS011;10279;46.388;8.116;2023-03-21T14:42:00;0.30;;;0.30;;
20241;SDS011;10279;46.388;8.116;2023-03-21T14:44:32;0.20;;;0.20;;
20241;SDS011;10279;46.388;8.116;2023-03-21T14:47:25;0.20;;;0.20;;
20241;SDS011;10279;46.388;8.116;2023-03-21T14:49:53;1.38;;;0.20;;
20241;SDS011;10279;46.388;8.116;2023-03-21T14:52:24;0.20;;;0.20;;
20241;SDS011;10279;46.388;8.116;2023-03-21T14:54:52;0.20;;;0.20;;
20241;SDS011;10279;46.388;8.116;2023-03-21T14:57:25;0.50;;;0.20;;
20241;SDS011;10279;46.388;8.116;2023-03-21T14:59:55;0.20;;;0.20;;
20241;SDS011;10279;46.388;8.116;2023-03-21T15:04:52;0.55;;;0.20;;
20241;SDS011;10279;46.388;8.116;2023-03-21T15:07:23;0.20;;;0.20;;
20241;SDS011;10279;46.388;8.116;2023-03-21T15:09:52;1.43;;;0.50;;
20241;SDS011;10279;46.388;8.116;2023-03-21T15:12:20;0.30;;;0.30;;
20241;SDS011;10279;46.388;8.116;2023-03-21T15:14:48;0.60;;;0.60;;
20241;SDS011;10279;46.388;8.116;2023-03-21T15:17:15;0.37;;;0.20;;
20241;SDS011;10279;46.388;8.116;2023-03-21T15:19:43;0.20;;;0.20;;
20241;SDS011;10279;46.388;8.116;2023-03-21T15:24:41;0.93;;;0.33;;
20241;SDS011;10279;46.388;8.116;2023-03-21T15:27:14;0.30;;;0.30;;
20241;SDS011;10279;46.388;8.116;2023-03-21T15:29:43;0.30;;;0.30;;
20241;SDS011;10279;46.388;8.116;2023-03-21T15:32:12;1.50;;;0.40;;
20241;SDS011;10279;46.388;8.116;2023-03-21T15:34:41;0.40;;;0.37;;
20241;SDS011;10279;46.388;8.116;2023-03-21T15:37:13;0.33;;;0.33;;
20241;SDS011;10279;46.388;8.116;2023-03-21T15:39:42;0.37;;;0.30;;
20241;SDS011;10279;46.388;8.116;2023-03-21T15:44:51;0.17;;;0.17;;
20241;SDS011;10279;46.388;8.116;2023-03-21T15:47:34;1.20;;;0.20;;
20241;SDS011;10279;46.388;8.116;2023-03-21T15:50:06;0.27;;;0.27;;
20241;SDS011;10279;46.388;8.116;2023-03-21T15:52:34;0.20;;;0.20;;
20241;SDS011;10279;46.388;8.116;2023-03-21T15:55:02;0.27;;;0.27;;
20241;SDS011;10279;46.388;8.116;2023-03-21T15:57:37;2.30;;;0.50;;
20241;SDS011;10279;46.388;8.116;2023-03-21T16:02:45;0.20;;;0.20;;
20241;SDS011;10279;46.388;8.116;2023-03-21T16:07:44;0.60;;;0.40;;
20241;SDS011;10279;46.388;8.116;2023-03-21T16:10:32;0.70;;;0.50;;
20241;SDS011;10279;46.388;8.116;2023-03-21T16:13:02;1.37;;;0.30;;
20241;SDS011;10279;46.388;8.116;2023-03-21T16:15:30;0.40;;;0.40;;
20241;SDS011;10279;46.388;8.116;2023-03-21T16:17:59;1.43;;;0.40;;
20241;SDS011;10279;46.388;8.116;2023-03-21T16:20:37;0.33;;;0.30;;
20241;SDS011;10279;46.388;8.116;2023-03-21T16:23:07;0.73;;;0.33;;
20241;SDS011;10279;46.388;8.116;2023-03-21T16:25:35;0.30;;;0.30;;
20241;SDS011;10279;46.388;8.116;2023-03-21T16:28:03;1.67;;;0.50;;
20241;SDS011;10279;46.388;8.116;2023-03-21T16:30:31;1.00;;;0.20;;
20241;SDS011;10279;46.388;8.116;2023-03-21T16:32:58;0.60;;;0.40;;
20241;SDS011;10279;46.388;8.116;2023-03-21T16:35:26;1.37;;;0.60;;
20241;SDS011;10279;46.388;8.116;2023-03-21T16:37:54;0.37;;;0.30;;
20241;SDS011;10279;46.388;8.116;2023-03-21T16:40:29;0.40;;;0.40;;
20241;SDS011;10279;46.388;8.116;2023-03-21T16:42:57;0.40;;;0.40;;
20241;SDS011;10279;46.388;8.116;2023-03-21T16:45:24;0.63;;;0.50;;
20241;SDS011;10279;46.388;8.116;2023-03-21T16:47:54;1.30;;;0.40;;
20241;SDS011;10279;46.388;8.116;2023-03-21T16:52:50;0.50;;;0.40;;
20241;SDS011;10279;46.388;8.116;2023-03-21T16:55:17;0.97;;;0.40;;
20241;SDS011;10279;46.388;8.116;2023-03-21T16:57:45;2.33;;;0.50;;
20241;SDS011;10279;46.388;8.116;2023-03-21T17:00:14;0.47;;;0.37;;
20241;SDS011;10279;46.388;8.116;2023-03-21T17:02:47;3.70;;;0.60;;